Time;durP1;ratioP1;P1;durP2;ratioP2;P2;SDS_P1;SDS_P2;PMS_P1;PMS_P2;Temp;Humidity;BMP_temperature;BMP_pressure;BME280_temperature;BME280_humidity;BME280_pressure;Samples;Min_cycle;Max_cycle;Signal;HPM_P1;HPM_P2
2023/12/17 00:01:20;;;;;;;11.43;6.05;;;9.30;99.90;;;;;;5136592;27;20053;-83
2023/12/17 00:03:46;;;;;;;17.13;6.18;;;9.40;99.90;;;;;;5136288;27;20038;-83
2023/12/17 00:06:12;;;;;;;15.88;6.18;;;9.70;99.90;;;;;;5118505;27;20065;-83
2023/12/17 00:08:38;;;;;;;15.73;6.00;;;9.20;99.90;;;;;;5154483;27;20051;-83
2023/12/17 00:11:03;;;;;;;12.35;5.90;;;9.60;99.90;;;;;;5119202;27;20088;-83
2023/12/17 00:13:29;;;;;;;20.35;6.13;;;9.20;99.90;;;;;;5154291;27;20046;-83
2023/12/17 00:15:55;;;;;;;12.60;6.53;;;9.40;99.90;;;;;;5155012;27;20042;-83
2023/12/17 00:18:20;;;;;;;12.30;5.90;;;9.20;99.90;;;;;;5135788;27;20026;-83
2023/12/17 00:20:46;;;;;;;9.48;5.47;;;9.30;99.90;;;;;;5136325;27;20049;-83
2023/12/17 00:23:12;;;;;;;11.18;5.93;;;9.20;99.90;;;;;;5135766;27;20495;-83
2023/12/17 00:25:37;;;;;;;13.95;6.28;;;9.20;99.90;;;;;;5135677;27;20045;-82
2023/12/17 00:28:03;;;;;;;12.77;5.90;;;9.20;99.90;;;;;;5136054;27;20034;-83
2023/12/17 00:30:29;;;;;;;10.60;5.82;;;9.20;99.90;;;;;;5136273;27;20038;-82
2023/12/17 00:32:55;;;;;;;15.88;6.03;;;9.60;99.90;;;;;;5135831;27;20205;-83
2023/12/17 00:35:21;;;;;;;12.60;6.63;;;9.30;99.90;;;;;;5154588;27;20065;-83
2023/12/17 00:37:46;;;;;;;10.70;5.35;;;9.50;99.90;;;;;;5153799;27;20039;-82
2023/12/17 00:40:12;;;;;;;15.55;6.45;;;9.30;99.90;;;;;;5135548;27;20038;-83
2023/12/17 00:42:38;;;;;;;12.98;5.85;;;9.30;99.90;;;;;;5135558;27;20045;-83
2023/12/17 00:45:04;;;;;;;13.98;6.30;;;9.50;99.90;;;;;;5154603;27;20043;-83
2023/12/17 00:47:30;;;;;;;14.02;5.97;;;9.30;99.90;;;;;;5153699;27;20045;-83
2023/12/17 00:49:56;;;;;;;14.27;6.00;;;9.20;99.90;;;;;;5135419;27;20126;-83
2023/12/17 00:52:22;;;;;;;11.40;5.60;;;9.20;99.90;;;;;;5135691;27;20042;-82
2023/12/17 00:54:48;;;;;;;12.95;5.80;;;9.30;99.90;;;;;;5153976;27;20035;-83
2023/12/17 00:57:14;;;;;;;17.33;5.80;;;9.70;99.90;;;;;;5135679;27;20039;-83
2023/12/17 00:59:40;;;;;;;15.00;5.57;;;9.30;99.90;;;;;;5153790;27;20464;-83
2023/12/17 01:02:05;;;;;;;15.40;5.95;;;9.90;99.90;;;;;;5154437;27;20043;-83
2023/12/17 01:04:31;;;;;;;11.95;5.18;;;9.40;99.90;;;;;;5135448;27;20069;-83
2023/12/17 01:06:57;;;;;;;13.95;5.03;;;9.50;99.90;;;;;;5135692;27;20089;-83
2023/12/17 01:09:22;;;;;;;14.07;5.45;;;9.50;99.90;;;;;;5117352;27;20051;-83
2023/12/17 01:11:48;;;;;;;11.82;5.43;;;9.70;99.90;;;;;;5135200;27;20043;-83
2023/12/17 01:14:14;;;;;;;9.25;4.70;;;9.30;99.90;;;;;;5135260;27;20487;-83
2023/12/17 01:16:39;;;;;;;13.43;5.35;;;9.30;99.90;;;;;;5119340;27;20042;-83
2023/12/17 01:19:05;;;;;;;12.32;5.30;;;9.30;99.90;;;;;;5122218;27;20042;-83
2023/12/17 01:21:31;;;;;;;15.75;6.05;;;9.30;99.90;;;;;;5139802;27;20051;-83
2023/12/17 01:23:58;;;;;;;11.55;5.13;;;9.30;99.90;;;;;;5139122;27;20078;-83
2023/12/17 01:26:26;;;;;;;12.95;5.20;;;9.30;99.90;;;;;;5139801;27;20046;-83
2023/12/17 01:28:58;;;;;;;11.35;5.45;;;9.80;99.90;;;;;;5139178;27;20384;-83
2023/12/17 01:31:23;;;;;;;12.75;5.38;;;9.30;99.90;;;;;;5139521;27;20490;-83
2023/12/17 01:33:49;;;;;;;15.95;6.10;;;9.30;99.90;;;;;;5139595;27;20122;-83
2023/12/17 01:36:15;;;;;;;14.35;6.30;;;9.80;99.90;;;;;;5139548;27;20491;-83
2023/12/17 01:38:40;;;;;;;10.55;5.60;;;9.50;99.90;;;;;;5139071;27;20042;-83
2023/12/17 01:41:09;;;;;;;9.43;5.05;;;9.90;99.90;;;;;;5140097;27;20042;-83
2023/12/17 01:43:35;;;;;;;10.45;5.57;;;9.80;99.90;;;;;;5122105;27;20093;-83
2023/12/17 01:46:01;;;;;;;11.25;5.53;;;9.70;99.90;;;;;;5157837;27;20038;-83
2023/12/17 01:48:27;;;;;;;11.77;5.78;;;9.30;99.90;;;;;;5139073;27;20482;-83
2023/12/17 01:50:57;;;;;;;10.15;5.50;;;9.80;99.90;;;;;;5138728;27;20062;-83
2023/12/17 01:53:23;;;;;;;14.25;5.85;;;9.30;99.90;;;;;;5138733;27;20043;-83
2023/12/17 01:55:50;;;;;;;17.98;6.20;;;9.30;99.90;;;;;;5157338;27;20110;-83
2023/12/17 01:58:16;;;;;;;9.57;5.00;;;9.80;99.90;;;;;;5139198;27;20112;-83
2023/12/17 02:00:44;;;;;;;13.95;5.93;;;9.30;99.90;;;;;;5157265;27;20043;-83
2023/12/17 02:03:10;;;;;;;13.60;5.80;;;9.40;99.90;;;;;;5156604;27;20043;-83
2023/12/17 02:05:36;;;;;;;8.40;5.35;;;9.30;99.90;;;;;;5157091;27;20043;-83
2023/12/17 02:08:02;;;;;;;10.85;5.53;;;9.30;99.90;;;;;;5157210;27;20043;-83
2023/12/17 02:10:28;;;;;;;15.93;5.45;;;9.30;99.90;;;;;;5157596;27;20039;-83
2023/12/17 02:12:54;;;;;;;14.48;5.55;;;9.30;99.90;;;;;;5156885;27;20734;-83
2023/12/17 02:15:20;;;;;;;11.43;4.93;;;9.30;99.90;;;;;;5157203;27;20042;-83
2023/12/17 02:17:45;;;;;;;11.85;5.35;;;9.50;99.90;;;;;;5156516;27;20042;-83
2023/12/17 02:20:11;;;;;;;11.93;5.47;;;9.80;99.90;;;;;;5157128;27;20118;-83
2023/12/17 02:22:38;;;;;;;9.88;5.03;;;9.40;99.90;;;;;;5138036;27;20031;-83
2023/12/17 02:25:07;;;;;;;10.88;5.30;;;9.40;99.90;;;;;;5138324;27;20046;-83
2023/12/17 02:27:33;;;;;;;14.48;4.97;;;9.30;99.90;;;;;;5137935;27;20035;-83
2023/12/17 02:29:59;;;;;;;10.45;4.70;;;9.30;99.90;;;;;;5137750;27;20133;-83
2023/12/17 02:32:25;;;;;;;16.33;5.13;;;9.60;99.90;;;;;;5138280;27;20081;-83
2023/12/17 02:34:51;;;;;;;15.52;5.30;;;9.40;99.90;;;;;;5120443;27;20038;-82
2023/12/17 02:37:18;;;;;;;13.07;5.68;;;9.70;99.90;;;;;;5156835;27;20494;-83
2023/12/17 02:39:44;;;;;;;13.18;5.35;;;9.80;99.90;;;;;;5138183;27;20050;-83
2023/12/17 02:42:10;;;;;;;7.93;5.07;;;9.50;99.90;;;;;;5137908;27;20049;-83
2023/12/17 02:44:36;;;;;;;9.82;5.15;;;9.30;99.90;;;;;;5137928;27;20190;-83
2023/12/17 02:47:01;;;;;;;13.38;4.90;;;9.30;99.90;;;;;;5156536;27;20518;-82
2023/12/17 02:49:28;;;;;;;10.40;5.85;;;9.90;99.90;;;;;;5137574;27;20049;-82
2023/12/17 02:51:57;;;;;;;12.60;4.80;;;9.60;99.90;;;;;;5138114;27;20058;-83
2023/12/17 02:54:23;;;;;;;9.88;4.53;;;9.30;99.90;;;;;;5137316;27;20368;-83
2023/12/17 02:56:49;;;;;;;11.88;5.15;;;9.40;99.90;;;;;;5137414;27;20042;-83
2023/12/17 02:59:15;;;;;;;9.48;5.50;;;9.40;99.90;;;;;;5156269;27;20082;-83
2023/12/17 03:01:41;;;;;;;11.40;5.63;;;9.40;99.90;;;;;;5155813;27;20077;-82
2023/12/17 03:04:08;;;;;;;12.27;4.90;;;9.50;99.90;;;;;;5156285;27;20402;-82
2023/12/17 03:06:35;;;;;;;9.23;5.28;;;9.90;99.90;;;;;;5155587;27;20054;-83
2023/12/17 03:09:00;;;;;;;12.38;4.50;;;9.40;99.90;;;;;;5155347;27;20046;-83
2023/12/17 03:11:26;;;;;;;15.57;4.78;;;9.60;99.90;;;;;;5137808;27;20066;-83
2023/12/17 03:13:52;;;;;;;14.70;4.60;;;9.60;99.90;;;;;;5136972;27;20478;-83
2023/12/17 03:16:18;;;;;;;8.45;4.65;;;9.70;99.90;;;;;;5138252;27;20038;-83
2023/12/17 03:18:43;;;;;;;11.20;4.30;;;9.90;99.90;;;;;;5137490;27;20486;-83
2023/12/17 03:21:09;;;;;;;8.90;4.30;;;9.40;99.90;;;;;;5156077;27;20599;-83
2023/12/17 03:23:35;;;;;;;13.35;4.65;;;9.90;99.90;;;;;;5137067;27;20038;-83
2023/12/17 03:26:02;;;;;;;11.02;4.30;;;10.00;99.90;;;;;;5134948;27;20054;-83
2023/12/17 03:28:27;;;;;;;13.35;4.32;;;9.40;99.90;;;;;;5137444;27;20433;-83
2023/12/17 03:30:53;;;;;;;8.50;4.40;;;9.60;99.90;;;;;;5137528;27;20092;-83
2023/12/17 03:33:18;;;;;;;12.77;4.85;;;9.80;99.90;;;;;;5137243;27;20049;-83
2023/12/17 03:35:44;;;;;;;8.85;4.30;;;9.40;99.90;;;;;;5136669;27;20525;-83
2023/12/17 03:38:10;;;;;;;9.40;4.40;;;9.70;99.90;;;;;;5136511;27;20437;-83
2023/12/17 03:40:35;;;;;;;12.68;4.90;;;10.00;99.90;;;;;;5154479;27;20436;-83
2023/12/17 03:43:01;;;;;;;9.27;4.05;;;9.40;99.90;;;;;;5137224;27;20128;-83
2023/12/17 03:45:27;;;;;;;8.35;4.93;;;9.40;99.90;;;;;;5137001;27;20046;-83
2023/12/17 03:47:52;;;;;;;9.27;5.28;;;10.00;99.90;;;;;;5136168;27;20038;-83
2023/12/17 03:50:19;;;;;;;14.80;4.70;;;9.40;99.90;;;;;;5137002;27;20347;-83
2023/12/17 03:52:46;;;;;;;8.20;4.68;;;9.40;99.90;;;;;;5136312;27;20047;-83
2023/12/17 03:55:13;;;;;;;8.55;4.03;;;9.50;99.90;;;;;;5135934;27;20126;-83
2023/12/17 03:57:39;;;;;;;16.83;5.57;;;10.00;99.90;;;;;;5136683;27;20046;-83
2023/12/17 04:00:05;;;;;;;11.45;4.72;;;9.90;99.90;;;;;;5136636;27;20039;-83
2023/12/17 04:02:31;;;;;;;14.32;5.22;;;9.40;99.90;;;;;;5155115;27;20062;-83
2023/12/17 04:04:57;;;;;;;15.30;5.28;;;9.70;99.90;;;;;;5136191;27;20043;-83
2023/12/17 04:07:22;;;;;;;9.40;4.80;;;9.60;99.90;;;;;;5153854;27;20054;-82
2023/12/17 04:09:48;;;;;;;11.68;4.00;;;9.80;99.90;;;;;;5119326;27;20046;-82
2023/12/17 04:12:14;;;;;;;12.00;4.80;;;9.70;99.90;;;;;;5136267;27;20081;-83
2023/12/17 04:14:40;;;;;;;11.63;5.00;;;9.80;99.90;;;;;;5135502;27;20046;-83
2023/12/17 04:17:07;;;;;;;9.50;4.38;;;9.90;99.90;;;;;;5135228;27;20039;-83
2023/12/17 04:19:33;;;;;;;14.95;5.10;;;9.60;99.90;;;;;;5136220;27;20047;-83
2023/12/17 04:21:58;;;;;;;14.48;5.53;;;9.30;99.90;;;;;;5154908;27;20031;-83
2023/12/17 04:24:24;;;;;;;15.90;5.72;;;9.90;99.90;;;;;;5154389;27;20038;-83
2023/12/17 04:26:50;;;;;;;12.18;5.07;;;9.40;99.90;;;;;;5118664;27;20046;-83
2023/12/17 04:29:16;;;;;;;13.93;5.47;;;9.70;99.90;;;;;;5135988;27;20035;-85
2023/12/17 04:31:41;;;;;;;16.95;5.95;;;9.30;99.90;;;;;;5118737;27;20043;-83
2023/12/17 04:34:08;;;;;;;14.75;5.65;;;9.80;99.90;;;;;;5136154;27;20506;-83
2023/12/17 04:36:35;;;;;;;12.35;5.28;;;9.50;99.90;;;;;;5135717;27;20046;-82
2023/12/17 04:39:01;;;;;;;10.32;6.07;;;9.90;99.90;;;;;;5135657;27;20522;-84
2023/12/17 04:41:26;;;;;;;12.70;5.57;;;9.70;99.90;;;;;;5136042;27;20112;-83
2023/12/17 04:43:52;;;;;;;14.55;6.10;;;9.30;99.90;;;;;;5118779;27;20046;-83
2023/12/17 04:46:18;;;;;;;13.35;5.88;;;9.30;99.90;;;;;;5135571;27;20052;-83
2023/12/17 04:48:44;;;;;;;12.43;5.53;;;9.50;99.90;;;;;;5135458;27;20194;-83
2023/12/17 04:51:10;;;;;;;12.88;5.30;;;10.10;99.90;;;;;;5135646;27;20113;-84
2023/12/17 04:53:35;;;;;;;10.48;5.65;;;9.40;99.90;;;;;;5135555;27;20050;-84
2023/12/17 04:56:02;;;;;;;15.13;5.05;;;9.30;99.90;;;;;;5135883;27;20432;-84
2023/12/17 04:58:28;;;;;;;13.43;5.95;;;9.30;99.90;;;;;;5153748;27;20078;-83
2023/12/17 05:00:58;;;;;;;10.02;5.03;;;9.30;99.90;;;;;;5135964;27;20134;-84
2023/12/17 05:03:25;;;;;;;14.73;5.28;;;9.60;99.90;;;;;;5154422;27;20107;-83
2023/12/17 05:05:50;;;;;;;16.38;5.68;;;9.80;99.90;;;;;;5135598;27;20491;-84
2023/12/17 05:08:16;;;;;;;12.73;5.85;;;9.30;99.90;;;;;;5152772;27;20055;-83
2023/12/17 05:10:42;;;;;;;15.85;6.38;;;9.50;99.90;;;;;;5135602;27;20050;-83
2023/12/17 05:13:08;;;;;;;15.48;6.03;;;9.30;99.90;;;;;;5153757;27;20046;-83
2023/12/17 05:15:34;;;;;;;14.38;6.70;;;9.30;99.90;;;;;;5154280;27;20038;-83
2023/12/17 05:18:00;;;;;;;12.40;6.63;;;9.50;99.90;;;;;;5119073;27;20451;-83
2023/12/17 05:20:25;;;;;;;17.05;7.35;;;9.30;99.90;;;;;;5153919;27;20049;-82
2023/12/17 05:22:51;;;;;;;15.13;6.97;;;9.20;99.90;;;;;;5135534;27;20122;-83
2023/12/17 05:25:17;;;;;;;18.80;7.28;;;9.50;99.90;;;;;;5153981;27;20383;-83
2023/12/17 05:27:43;;;;;;;12.30;6.60;;;9.40;99.90;;;;;;5134965;27;20046;-82
2023/12/17 05:30:09;;;;;;;22.08;6.63;;;9.60;99.90;;;;;;5134251;27;20435;-83
2023/12/17 05:32:35;;;;;;;21.73;7.13;;;9.20;99.90;;;;;;5135127;27;20505;-83
2023/12/17 05:35:01;;;;;;;10.40;5.47;;;9.60;99.90;;;;;;5135512;27;20039;-83
2023/12/17 05:37:26;;;;;;;18.02;6.07;;;9.40;99.90;;;;;;5154180;27;20042;-83
2023/12/17 05:39:52;;;;;;;13.18;6.18;;;9.30;99.90;;;;;;5135227;27;20039;-83
2023/12/17 05:42:18;;;;;;;15.60;6.82;;;9.20;99.90;;;;;;5134956;27;20434;-83
2023/12/17 05:44:43;;;;;;;19.30;6.65;;;9.40;99.90;;;;;;5154004;27;20039;-83
2023/12/17 05:47:09;;;;;;;13.93;6.90;;;9.20;99.90;;;;;;5135318;27;20444;-83
2023/12/17 05:49:39;;;;;;;15.35;6.88;;;9.60;99.90;;;;;;5118359;27;20043;-83
2023/12/17 05:52:06;;;;;;;17.65;7.28;;;9.20;99.90;;;;;;5153415;27;20047;-83
2023/12/17 05:54:32;;;;;;;15.23;7.75;;;9.50;99.90;;;;;;5153672;27;20475;-83
2023/12/17 05:56:57;;;;;;;18.23;7.75;;;9.20;99.90;;;;;;5134993;27;20049;-83
2023/12/17 05:59:23;;;;;;;17.25;7.35;;;9.20;99.90;;;;;;5135365;27;20035;-83
2023/12/17 06:01:49;;;;;;;12.15;7.07;;;9.80;99.90;;;;;;5153565;27;20039;-83
2023/12/17 06:04:15;;;;;;;19.80;7.32;;;9.20;99.90;;;;;;5136027;27;20050;-83
2023/12/17 06:06:41;;;;;;;17.60;7.90;;;9.60;99.90;;;;;;5138807;27;20057;-83
2023/12/17 06:09:07;;;;;;;17.23;7.20;;;9.60;99.90;;;;;;5121749;27;20047;-83
2023/12/17 06:11:33;;;;;;;16.77;8.38;;;9.10;99.90;;;;;;5157453;27;20051;-84
2023/12/17 06:13:59;;;;;;;15.95;7.80;;;9.50;99.90;;;;;;5162586;27;20035;-83
2023/12/17 06:16:25;;;;;;;20.42;7.90;;;9.10;99.90;;;;;;5140952;27;20043;-83
2023/12/17 06:18:53;;;;;;;17.58;8.35;;;9.60;99.90;;;;;;5141866;27;20038;-83
2023/12/17 06:21:27;;;;;;;22.73;7.22;;;9.30;99.90;;;;;;5178136;27;20066;-83
2023/12/17 06:23:57;;;;;;;16.13;8.15;;;9.40;99.90;;;;;;5152546;27;20037;-83
2023/12/17 06:26:26;;;;;;;15.35;7.43;;;9.10;99.90;;;;;;5156800;27;20047;-83
2023/12/17 06:28:51;;;;;;;15.27;7.28;;;9.60;99.90;;;;;;5138252;27;20043;-83
2023/12/17 06:31:17;;;;;;;16.63;6.82;;;9.10;99.90;;;;;;5157100;27;20042;-83
2023/12/17 06:33:43;;;;;;;14.13;7.57;;;9.20;99.90;;;;;;5120638;27;20035;-83
2023/12/17 06:36:09;;;;;;;12.32;6.43;;;9.90;99.90;;;;;;5161069;27;20198;-83
2023/12/17 06:38:35;;;;;;;18.92;7.22;;;9.10;99.90;;;;;;5138616;27;20046;-83
2023/12/17 06:41:00;;;;;;;14.02;7.20;;;9.10;99.90;;;;;;5120477;27;20502;-83
2023/12/17 06:43:26;;;;;;;14.43;6.88;;;9.10;99.90;;;;;;5156953;27;20042;-83
2023/12/17 06:45:52;;;;;;;13.95;7.40;;;9.10;99.90;;;;;;5136889;27;20047;-83
2023/12/17 06:48:18;;;;;;;18.80;7.40;;;9.80;99.90;;;;;;5156506;27;20047;-83
2023/12/17 06:50:44;;;;;;;15.35;7.65;;;9.70;99.90;;;;;;5138005;27;20094;-83
2023/12/17 06:53:15;;;;;;;16.90;8.77;;;9.30;99.90;;;;;;5157156;27;20104;-83
2023/12/17 06:55:41;;;;;;;20.48;8.70;;;9.70;99.90;;;;;;5138177;27;20043;-83
2023/12/17 06:58:07;;;;;;;16.67;9.43;;;9.10;99.90;;;;;;5137491;27;20043;-83
2023/12/17 07:00:34;;;;;;;15.55;8.00;;;9.80;99.90;;;;;;5156671;27;20076;-83
2023/12/17 07:03:00;;;;;;;19.10;8.88;;;9.10;99.90;;;;;;5156559;27;20041;-82
2023/12/17 07:05:26;;;;;;;13.93;9.32;;;9.10;99.90;;;;;;5144177;27;20038;-83
2023/12/17 07:07:52;;;;;;;13.57;9.65;;;9.10;99.90;;;;;;5160819;27;20521;-83
2023/12/17 07:10:17;;;;;;;23.63;10.80;;;9.00;99.90;;;;;;5156105;27;20073;-82
2023/12/17 07:12:43;;;;;;;18.77;9.95;;;9.20;99.90;;;;;;5117626;27;20424;-84
2023/12/17 07:15:10;;;;;;;17.63;10.13;;;9.10;99.90;;;;;;5130562;27;20047;-83
2023/12/17 07:17:35;;;;;;;18.13;9.57;;;9.10;99.90;;;;;;5134597;27;20479;-82
2023/12/17 07:20:01;;;;;;;25.30;11.38;;;9.10;99.90;;;;;;5117157;27;20039;-83
2023/12/17 07:22:27;;;;;;;18.63;10.60;;;9.40;99.90;;;;;;5146702;27;20046;-82
2023/12/17 07:24:52;;;;;;;20.20;11.00;;;9.40;99.90;;;;;;5137676;27;20037;-83
2023/12/17 07:27:18;;;;;;;20.55;10.48;;;9.20;99.90;;;;;;5155809;27;20095;-84
2023/12/17 07:29:44;;;;;;;18.77;9.48;;;9.10;99.90;;;;;;5137504;27;20055;-84
2023/12/17 07:32:10;;;;;;;18.63;8.95;;;9.10;99.90;;;;;;5151242;27;20043;-83
2023/12/17 07:34:35;;;;;;;20.27;8.02;;;9.10;99.90;;;;;;5148033;27;20090;-83
2023/12/17 07:37:01;;;;;;;21.65;9.30;;;9.70;99.90;;;;;;5137487;27;20547;-83
2023/12/17 07:39:27;;;;;;;17.05;7.60;;;9.10;99.90;;;;;;5130215;27;20034;-83
2023/12/17 07:41:53;;;;;;;17.95;8.15;;;9.70;99.90;;;;;;5134654;27;20061;-83
2023/12/17 07:44:19;;;;;;;27.80;9.20;;;9.10;99.90;;;;;;5125865;27;20091;-83
2023/12/17 07:46:45;;;;;;;20.60;8.32;;;9.50;99.90;;;;;;5098973;27;20050;-83
2023/12/17 07:49:10;;;;;;;16.55;8.15;;;9.60;99.90;;;;;;5116400;27;20047;-84
2023/12/17 07:51:38;;;;;;;18.60;7.43;;;9.80;99.90;;;;;;5117511;27;20035;-84
2023/12/17 07:54:05;;;;;;;17.50;7.50;;;9.70;99.90;;;;;;5120515;27;20082;-83
2023/12/17 07:56:32;;;;;;;23.52;7.88;;;9.10;99.90;;;;;;5152974;27;20039;-84
2023/12/17 07:58:58;;;;;;;18.38;7.47;;;9.10;99.90;;;;;;5136196;27;20054;-83
2023/12/17 08:01:28;;;;;;;17.00;8.85;;;9.40;99.90;;;;;;5154650;27;20371;-83
2023/12/17 08:03:53;;;;;;;23.02;7.65;;;9.60;99.90;;;;;;5118309;27;20053;-83
2023/12/17 08:06:19;;;;;;;19.92;8.27;;;9.70;99.90;;;;;;5121450;27;20398;-83
2023/12/17 08:08:45;;;;;;;19.13;8.07;;;9.60;99.90;;;;;;5135816;27;20050;-82
2023/12/17 08:11:14;;;;;;;20.17;8.23;;;9.10;99.90;;;;;;5136723;27;20074;-82
2023/12/17 08:13:40;;;;;;;17.23;8.38;;;9.10;99.90;;;;;;5135433;27;20046;-83
2023/12/17 08:16:06;;;;;;;21.27;8.30;;;9.20;99.90;;;;;;5136450;27;20104;-83
2023/12/17 08:18:31;;;;;;;17.83;8.02;;;9.10;99.90;;;;;;5134847;27;20142;-82
2023/12/17 08:20:57;;;;;;;17.38;7.95;;;9.40;99.90;;;;;;5136032;27;20418;-82
2023/12/17 08:23:25;;;;;;;16.45;7.97;;;9.30;99.90;;;;;;5135632;27;20038;-83
2023/12/17 08:25:52;;;;;;;17.92;8.63;;;9.20;99.90;;;;;;5135828;27;20035;-83
2023/12/17 08:28:19;;;;;;;17.33;7.05;;;9.70;99.90;;;;;;5135893;27;20547;-83
2023/12/17 08:30:45;;;;;;;20.35;8.00;;;9.40;99.90;;;;;;5136047;27;20042;-83
2023/12/17 08:33:11;;;;;;;16.50;6.80;;;9.10;99.90;;;;;;5136045;27;20399;-83
2023/12/17 08:35:37;;;;;;;14.13;6.63;;;9.10;99.90;;;;;;5154600;27;20082;-83
2023/12/17 08:38:05;;;;;;;16.65;6.50;;;9.10;99.90;;;;;;5134869;27;20075;-83
2023/12/17 08:40:38;;;;;;;19.40;7.10;;;9.00;99.90;;;;;;5135205;27;20042;-83
2023/12/17 08:43:06;;;;;;;17.02;7.03;;;9.00;99.90;;;;;;5136004;27;20484;-83
2023/12/17 08:45:31;;;;;;;18.88;7.05;;;9.70;99.90;;;;;;5136203;27;20045;-85
2023/12/17 08:47:57;;;;;;;10.77;7.07;;;9.60;99.90;;;;;;5135658;27;20457;-84
2023/12/17 08:50:23;;;;;;;14.38;8.15;;;9.30;99.90;;;;;;5135796;27;20046;-84
2023/12/17 08:52:49;;;;;;;20.13;7.72;;;9.10;99.90;;;;;;5154351;27;20083;-84
2023/12/17 08:55:14;;;;;;;20.00;8.10;;;9.50;99.90;;;;;;5135616;27;20051;-84
2023/12/17 08:57:40;;;;;;;17.40;8.23;;;9.10;99.90;;;;;;5153355;27;20043;-84
2023/12/17 09:00:06;;;;;;;15.02;8.13;;;9.30;99.90;;;;;;5154429;27;20491;-84
2023/12/17 09:02:34;;;;;;;18.80;9.18;;;9.10;99.90;;;;;;5154597;27;20038;-84
2023/12/17 09:05:01;;;;;;;19.63;9.27;;;9.10;99.90;;;;;;5135904;27;20054;-84
2023/12/17 09:07:27;;;;;;;21.25;8.65;;;9.80;99.90;;;;;;5135570;27;20077;-84
2023/12/17 09:09:53;;;;;;;16.40;9.10;;;9.50;99.90;;;;;;5118299;27;20447;-83
2023/12/17 09:12:19;;;;;;;22.33;10.00;;;9.70;99.90;;;;;;5134760;27;20398;-85
2023/12/17 09:14:44;;;;;;;17.52;10.05;;;9.20;99.90;;;;;;5143884;27;20049;-83
2023/12/17 09:17:10;;;;;;;14.88;9.02;;;9.30;99.90;;;;;;5156340;27;20478;-85
2023/12/17 09:19:36;;;;;;;20.98;10.88;;;9.20;99.90;;;;;;5156147;27;20046;-85
2023/12/17 09:22:01;;;;;;;21.48;11.07;;;9.20;99.90;;;;;;5156050;27;20466;-83
2023/12/17 09:24:27;;;;;;;22.35;10.38;;;9.20;99.90;;;;;;5127673;27;20614;-83
2023/12/17 09:26:53;;;;;;;23.80;11.20;;;9.70;99.90;;;;;;5153982;27;20073;-83
2023/12/17 09:29:20;;;;;;;22.05;11.18;;;9.70;99.90;;;;;;5153655;27;20049;-85
2023/12/17 09:31:46;;;;;;;20.45;10.98;;;9.20;99.90;;;;;;5153540;27;20042;-84
2023/12/17 09:34:14;;;;;;;26.02;10.80;;;9.60;99.90;;;;;;5135291;27;20035;-84
2023/12/17 09:36:41;;;;;;;27.45;11.73;;;9.90;99.90;;;;;;5134510;27;20050;-84
2023/12/17 09:39:07;;;;;;;27.50;12.52;;;9.50;99.90;;;;;;5154896;27;20035;-84
2023/12/17 09:41:32;;;;;;;36.35;12.55;;;9.50;99.90;;;;;;5138641;27;20050;-84
2023/12/17 09:43:59;;;;;;;20.67;10.93;;;9.40;99.90;;;;;;5139361;27;20364;-83
2023/12/17 09:46:25;;;;;;;28.15;11.77;;;9.30;99.90;;;;;;5157940;27;20053;-84
2023/12/17 09:48:50;;;;;;;25.77;11.02;;;9.60;99.90;;;;;;5157290;27;20440;-84
2023/12/17 09:51:18;;;;;;;22.13;10.55;;;9.90;99.90;;;;;;5139157;27;20043;-84
2023/12/17 09:53:44;;;;;;;27.83;12.10;;;9.80;99.90;;;;;;5139341;27;20043;-84
2023/12/17 09:56:12;;;;;;;28.65;10.88;;;9.90;99.90;;;;;;5157723;27;20129;-84
2023/12/17 09:58:38;;;;;;;24.17;11.15;;;9.90;99.90;;;;;;5157453;27;20038;-84
2023/12/17 10:01:04;;;;;;;29.05;10.70;;;9.70;99.90;;;;;;5122070;27;20153;-83
2023/12/17 10:03:30;;;;;;;25.63;9.75;;;9.40;99.90;;;;;;5157136;27;20039;-84
2023/12/17 10:05:56;;;;;;;24.90;10.55;;;9.40;99.90;;;;;;5138834;27;20121;-84
2023/12/17 10:08:22;;;;;;;19.83;8.45;;;9.50;99.90;;;;;;5138300;27;20094;-83
2023/12/17 10:10:48;;;;;;;27.63;9.43;;;9.50;99.90;;;;;;5157250;27;20122;-84
2023/12/17 10:13:19;;;;;;;23.98;8.50;;;9.90;99.90;;;;;;5138815;27;20130;-84
2023/12/17 10:15:52;;;;;;;28.40;9.23;;;9.50;99.90;;;;;;5157376;27;20046;-84
2023/12/17 10:18:18;;;;;;;21.30;9.10;;;10.20;99.90;;;;;;5138315;27;20047;-83
2023/12/17 10:20:45;;;;;;;18.23;7.72;;;9.50;99.90;;;;;;5138719;27;20129;-85
2023/12/17 10:23:12;;;;;;;22.20;9.25;;;9.90;99.90;;;;;;5157380;27;20398;-83
2023/12/17 10:25:38;;;;;;;24.13;9.23;;;9.60;99.90;;;;;;5138378;27;20088;-84
2023/12/17 10:28:04;;;;;;;26.05;8.20;;;10.00;99.90;;;;;;5138597;27;20052;-83
2023/12/17 10:30:32;;;;;;;26.73;8.43;;;10.00;99.90;;;;;;5138491;27;20465;-83
2023/12/17 10:33:01;;;;;;;17.73;7.78;;;10.10;99.90;;;;;;5156427;27;20423;-83
2023/12/17 10:35:30;;;;;;;25.70;8.43;;;9.60;99.90;;;;;;5138387;27;20597;-83
2023/12/17 10:38:03;;;;;;;22.40;8.82;;;10.20;99.90;;;;;;5157132;27;20095;-83
2023/12/17 10:40:30;;;;;;;20.50;8.07;;;9.70;99.90;;;;;;5137505;27;20038;-83
2023/12/17 10:42:58;;;;;;;19.55;7.40;;;9.70;99.90;;;;;;5138495;27;20035;-83
2023/12/17 10:45:25;;;;;;;29.88;9.55;;;9.70;99.90;;;;;;5156809;27;20185;-83
2023/12/17 10:47:53;;;;;;;20.13;8.55;;;9.70;99.90;;;;;;5137889;27;20478;-83
2023/12/17 10:50:19;;;;;;;19.60;8.45;;;9.70;99.90;;;;;;5120543;27;20394;-83
2023/12/17 10:52:47;;;;;;;17.48;8.75;;;9.70;99.90;;;;;;5137756;27;20042;-84
2023/12/17 10:55:14;;;;;;;18.48;9.88;;;9.70;99.90;;;;;;5120087;27;20039;-83
2023/12/17 10:58:01;;;;;;;23.73;10.20;;;10.10;99.90;;;;;;5135911;27;20047;-83
2023/12/17 11:00:31;;;;;;;21.60;11.07;;;9.80;99.90;;;;;;5154010;27;20155;-82
2023/12/17 11:03:04;;;;;;;23.52;11.52;;;9.80;99.90;;;;;;5120821;27;20043;-83
2023/12/17 11:05:30;;;;;;;28.27;13.00;;;9.80;99.90;;;;;;5137226;27;20039;-83
2023/12/17 11:07:56;;;;;;;26.45;13.55;;;9.90;99.90;;;;;;5137334;27;20187;-84
2023/12/17 11:10:23;;;;;;;29.13;15.23;;;10.20;99.90;;;;;;5120475;27;20043;-85
2023/12/17 11:12:49;;;;;;;29.15;16.27;;;9.80;99.90;;;;;;5120484;27;20452;-83
2023/12/17 11:15:21;;;;;;;28.23;16.73;;;9.80;99.90;;;;;;5155809;27;20123;-83
2023/12/17 11:17:47;;;;;;;35.33;17.95;;;9.80;99.90;;;;;;5155929;27;20070;-83
2023/12/17 11:20:13;;;;;;;30.90;17.05;;;9.80;99.90;;;;;;5137447;27;20115;-84
2023/12/17 11:22:39;;;;;;;31.08;18.23;;;9.90;99.90;;;;;;5154922;27;20047;-84
2023/12/17 11:25:11;;;;;;;34.70;17.58;;;10.10;99.90;;;;;;5119938;27;20072;-84
2023/12/17 11:27:38;;;;;;;31.13;17.40;;;9.90;99.90;;;;;;5159238;27;20493;-83
2023/12/17 11:30:24;;;;;;;34.22;17.35;;;9.90;99.90;;;;;;5140793;27;20418;-83
2023/12/17 11:32:50;;;;;;;36.20;16.58;;;10.00;99.90;;;;;;5156879;27;20099;-83
2023/12/17 11:35:16;;;;;;;31.50;17.13;;;10.10;99.90;;;;;;5157545;27;20375;-83
2023/12/17 11:37:42;;;;;;;26.88;15.70;;;10.10;99.90;;;;;;5157814;27;20042;-83
2023/12/17 11:40:09;;;;;;;34.90;15.68;;;10.80;99.90;;;;;;5157330;27;20071;-84
2023/12/17 11:42:40;;;;;;;25.17;14.68;;;10.10;99.90;;;;;;5158046;27;20402;-85
2023/12/17 11:45:06;;;;;;;25.85;15.30;;;10.10;99.90;;;;;;5139378;27;20053;-85
2023/12/17 11:47:32;;;;;;;27.88;16.25;;;10.10;99.90;;;;;;5176136;27;20093;-82
2023/12/17 11:50:00;;;;;;;29.80;15.85;;;10.50;99.90;;;;;;5176327;27;20056;-83
2023/12/17 11:52:26;;;;;;;25.13;14.60;;;10.40;99.90;;;;;;5176237;27;20038;-82
2023/12/17 11:55:04;;;;;;;29.95;16.35;;;10.20;99.90;;;;;;5156995;27;20041;-82
2023/12/17 11:57:30;;;;;;;25.98;14.25;;;10.20;99.90;;;;;;5136887;27;20043;-83
2023/12/17 11:59:56;;;;;;;25.73;14.40;;;10.30;99.90;;;;;;5136317;27;20074;-83
2023/12/17 12:02:27;;;;;;;24.95;13.30;;;10.30;99.90;;;;;;5156439;27;20062;-82
2023/12/17 12:04:55;;;;;;;23.67;13.50;;;10.20;99.90;;;;;;5139726;27;20371;-83
2023/12/17 12:07:20;;;;;;;25.02;14.13;;;10.40;99.90;;;;;;5156866;27;20046;-83
2023/12/17 12:09:47;;;;;;;19.55;12.32;;;10.20;99.90;;;;;;5175621;27;20348;-83
2023/12/17 12:12:20;;;;;;;20.65;13.32;;;10.40;99.90;;;;;;5139587;27;20439;-83
2023/12/17 12:14:48;;;;;;;21.33;12.90;;;10.20;99.90;;;;;;5139600;27;20042;-82
2023/12/17 12:17:42;;;;;;;21.98;12.95;;;10.30;99.90;;;;;;5156312;27;20533;-83
2023/12/17 12:20:14;;;;;;;20.75;12.52;;;10.20;99.90;;;;;;5175527;27;20052;-84
2023/12/17 12:22:42;;;;;;;23.48;12.60;;;10.20;99.90;;;;;;5175630;27;20087;-83
2023/12/17 12:25:08;;;;;;;20.73;12.18;;;10.20;99.90;;;;;;5139823;27;20063;-83
2023/12/17 12:27:34;;;;;;;21.33;12.23;;;10.20;99.90;;;;;;5175270;27;20125;-83
2023/12/17 12:30:00;;;;;;;23.50;12.27;;;10.30;99.90;;;;;;5156405;27;20120;-83
2023/12/17 12:32:26;;;;;;;18.35;11.82;;;10.40;99.90;;;;;;5156279;27;20042;-84
2023/12/17 12:34:53;;;;;;;22.90;11.70;;;10.40;99.90;;;;;;5175220;27;20042;-83
2023/12/17 12:37:32;;;;;;;22.00;12.45;;;10.20;99.90;;;;;;5175531;27;20044;-87
2023/12/17 12:39:58;;;;;;;20.88;12.10;;;10.30;99.90;;;;;;5139530;27;20236;-84